Alton, New York
Current Conditions -  °F | °C
As of 12:54 PM on Saturday 22 Nov 2014 (Local Time) from KFZY Reporting Station
Light Rain Light Rain  
Wind Chill: -1°   Ceiling: 4700
Heat Index:   Visibility: 9mi
Dew Point: -9°   Wind: 8mph
Humidity: 41%   Direction: 170°S
Pressure: 30.07"   Gusts: NA
Location:  43.21°N, 76.98°W
Report Text: KFZY 221754Z AUTO 17007KT 9SM -RA OVC047 03/M09 A3007 RMK AO2 RAB41 SLP186 P0000 60000 T00281094 10028 21044 58049
Loading
Personal Weather Stations






























Interactive Weather Map New forecast layout! Learn more

10-Day Weather Forecast

Advertisements
Track Severe Weather on mobile